createdAt,value
2022-09-30T00:02:18.475Z,100198.19
2022-09-30T00:04:45.314Z,100203.50
2022-09-30T00:07:12.165Z,100203.50
2022-09-30T00:09:38.983Z,100202.59
2022-09-30T00:12:05.826Z,100199.06
2022-09-30T00:14:32.653Z,100210.59
2022-09-30T00:16:59.696Z,100203.53
2022-09-30T00:19:26.498Z,100207.94
2022-09-30T00:21:53.243Z,100210.59
2022-09-30T00:24:20.018Z,100214.16
2022-09-30T00:26:46.794Z,100207.09
2022-09-30T00:29:13.578Z,100207.09
2022-09-30T00:31:40.518Z,100221.25
2022-09-30T00:34:07.640Z,100220.38
2022-09-30T00:36:34.574Z,100221.25
2022-09-30T00:39:01.470Z,100217.78
2022-09-30T00:41:28.496Z,100231.03
2022-09-30T00:43:55.231Z,100220.44
2022-09-30T00:46:24.981Z,100223.97
2022-09-30T00:48:54.046Z,100230.22
2022-09-30T00:51:36.842Z,100230.25
2022-09-30T00:54:08.819Z,100213.53
2022-09-30T00:56:49.537Z,100228.59
2022-09-30T00:59:20.714Z,100226.00
2022-09-30T01:01:47.518Z,100224.25
2022-09-30T01:04:20.735Z,100225.16
2022-09-30T01:06:47.959Z,100221.69
2022-09-30T01:09:14.921Z,100218.16
2022-09-30T01:11:41.814Z,100221.78
2022-09-30T01:14:16.128Z,100230.66
2022-09-30T01:16:54.794Z,100236.03
2022-09-30T01:19:57.381Z,100226.31
2022-09-30T01:22:44.911Z,100236.16
2022-09-30T01:25:22.965Z,100229.09
2022-09-30T01:28:35.178Z,100235.34
2022-09-30T01:31:31.217Z,100234.53
2022-09-30T01:34:10.134Z,100231.94
2022-09-30T01:37:00.066Z,100231.06
2022-09-30T01:39:28.659Z,100227.59
2022-09-30T01:42:11.299Z,100225.88
2022-09-30T01:44:49.676Z,100224.13
2022-09-30T01:47:26.452Z,100227.72
2022-09-30T01:50:10.276Z,100219.81
2022-09-30T01:52:49.337Z,100234.84
2022-09-30T01:55:21.873Z,100235.78
2022-09-30T01:58:06.699Z,100229.63
2022-09-30T02:00:37.055Z,100234.94
2022-09-30T02:03:16.436Z,100237.63
2022-09-30T02:05:48.484Z,100247.34
2022-09-30T02:08:21.766Z,100247.41
2022-09-30T02:11:24.932Z,100251.84
2022-09-30T02:13:58.254Z,100243.06
2022-09-30T02:16:34.764Z,100256.31
2022-09-30T02:19:09.360Z,100255.47
2022-09-30T02:21:40.267Z,100244.91
2022-09-30T02:24:10.812Z,100254.63
2022-09-30T02:26:39.929Z,100251.09
2022-09-30T02:29:17.232Z,100251.13
2022-09-30T02:31:45.334Z,100254.66
2022-09-30T02:34:15.965Z,100252.94
2022-09-30T02:36:49.918Z,100249.41
2022-09-30T02:39:25.677Z,100257.34
2022-09-30T02:41:56.449Z,100258.28
2022-09-30T02:44:23.324Z,100262.69
2022-09-30T02:47:06.785Z,100257.38
2022-09-30T02:49:42.855Z,100263.59
2022-09-30T02:52:20.182Z,100268.03
2022-09-30T02:55:08.503Z,100269.81
2022-09-30T02:57:46.088Z,100268.06
2022-09-30T03:00:13.848Z,100268.97
2022-09-30T03:02:41.335Z,100274.28
2022-09-30T03:05:09.666Z,100280.47
2022-09-30T03:07:37.199Z,100273.41
2022-09-30T03:10:15.327Z,100279.63
2022-09-30T03:12:50.810Z,100288.47
2022-09-30T03:15:29.665Z,100289.38
2022-09-30T03:18:00.979Z,100292.03
2022-09-30T03:20:39.723Z,100285.88
2022-09-30T03:23:29.893Z,100298.22
2022-09-30T03:26:12.821Z,100297.41
2022-09-30T03:29:05.776Z,100300.03
2022-09-30T03:31:50.853Z,100292.94
2022-09-30T03:34:29.438Z,100298.28
2022-09-30T03:37:23.477Z,100299.16
2022-09-30T03:40:18.649Z,100287.69
2022-09-30T03:42:48.336Z,100300.09
2022-09-30T03:45:29.810Z,100299.19
2022-09-30T03:48:01.603Z,100303.63
2022-09-30T03:50:29.135Z,100301.00
2022-09-30T03:52:55.928Z,100310.69
2022-09-30T03:55:23.586Z,100305.38
2022-09-30T03:57:51.428Z,100306.31
2022-09-30T04:00:19.038Z,100317.78
2022-09-30T04:02:46.363Z,100317.78
2022-09-30T04:05:13.335Z,100321.28
2022-09-30T04:07:40.464Z,100313.34
2022-09-30T04:10:07.599Z,100324.84
2022-09-30T04:12:34.441Z,100324.84
2022-09-30T04:15:01.182Z,100335.44
2022-09-30T04:17:27.984Z,100332.78
2022-09-30T04:19:54.741Z,100334.59
2022-09-30T04:22:25.640Z,100335.47
2022-09-30T04:24:53.302Z,100336.38
2022-09-30T04:27:20.067Z,100345.19
2022-09-30T04:29:46.831Z,100344.31
2022-09-30T04:32:13.689Z,100346.09
2022-09-30T04:34:40.511Z,100352.25
2022-09-30T04:37:10.753Z,100349.63
2022-09-30T04:39:37.935Z,100355.78
2022-09-30T04:42:04.703Z,100352.28
2022-09-30T04:44:31.536Z,100353.16
2022-09-30T04:46:58.377Z,100351.41
2022-09-30T04:49:25.202Z,100356.72
2022-09-30T04:51:52.003Z,100361.13
2022-09-30T04:54:19.287Z,100356.69
2022-09-30T04:56:46.187Z,100362.88
2022-09-30T04:59:13.363Z,100369.94
2022-09-30T05:01:42.510Z,100369.94
2022-09-30T05:04:10.404Z,100361.13
2022-09-30T05:06:37.196Z,100377.00
2022-09-30T05:09:04.037Z,100377.00
2022-09-30T05:11:30.904Z,100373.47
2022-09-30T05:13:57.721Z,100372.63
2022-09-30T05:16:24.595Z,100368.19
2022-09-30T05:18:51.716Z,100377.88
2022-09-30T05:21:20.510Z,100380.53
2022-09-30T05:23:47.481Z,100381.44
2022-09-30T05:26:14.329Z,100396.41
2022-09-30T05:28:42.101Z,100390.25
2022-09-30T05:31:09.271Z,100392.91
2022-09-30T05:33:36.602Z,100399.03
2022-09-30T05:36:06.751Z,100395.53
2022-09-30T05:38:33.838Z,100401.69
2022-09-30T05:41:13.149Z,100401.69
2022-09-30T05:43:41.586Z,100409.63
2022-09-30T05:46:08.551Z,100417.56
2022-09-30T05:48:35.595Z,100412.25
2022-09-30T05:51:02.722Z,100418.44
2022-09-30T05:53:31.918Z,100419.31
2022-09-30T05:55:59.509Z,100416.69
2022-09-30T05:58:27.471Z,100419.31
2022-09-30T06:00:54.731Z,100419.31
2022-09-30T06:03:21.700Z,100434.31
2022-09-30T06:05:48.747Z,100435.19
2022-09-30T06:08:16.076Z,100435.16
2022-09-30T06:10:48.222Z,100443.97
2022-09-30T06:13:17.505Z,100443.97
2022-09-30T06:15:45.038Z,100446.63
2022-09-30T06:18:20.074Z,100455.41
2022-09-30T06:20:47.409Z,100456.28
2022-09-30T06:23:14.565Z,100461.56
2022-09-30T06:25:43.760Z,100461.53
2022-09-30T06:28:10.980Z,100456.25
2022-09-30T06:30:38.012Z,100458.88
2022-09-30T06:33:04.962Z,100463.28
2022-09-30T06:35:32.072Z,100467.69
2022-09-30T06:37:59.158Z,100468.56
2022-09-30T06:40:26.836Z,100477.38
2022-09-30T06:42:59.691Z,100477.31
2022-09-30T06:45:32.999Z,100472.00
2022-09-30T06:48:01.786Z,100473.78
2022-09-30T06:50:30.291Z,100473.72
2022-09-30T06:53:07.509Z,100469.28
2022-09-30T06:55:39.227Z,100481.59
2022-09-30T06:58:11.342Z,100471.88
2022-09-30T07:00:38.368Z,100473.59
2022-09-30T07:03:09.744Z,100473.47
2022-09-30T07:05:44.420Z,100464.53
2022-09-30T07:08:36.986Z,100481.28
2022-09-30T07:11:12.653Z,100478.56
2022-09-30T07:18:15.982Z,100485.28
2022-09-30T07:21:51.291Z,100478.03
2022-09-30T07:24:24.443Z,100477.81
2022-09-30T07:27:47.283Z,100482.88
2022-09-30T07:30:31.896Z,100480.78
2022-09-30T07:33:04.077Z,100475.88
2022-09-30T07:35:56.407Z,100497.25
2022-09-30T07:38:52.791Z,100486.03
2022-09-30T07:41:38.346Z,100494.69
2022-09-30T07:44:12.620Z,100488.53
2022-09-30T07:47:06.731Z,100481.59
2022-09-30T07:49:34.933Z,100473.78
2022-09-30T07:52:08.863Z,100486.34
2022-09-30T07:54:41.016Z,100484.69
2022-09-30T07:57:11.025Z,100492.78
2022-09-30T07:59:41.359Z,100496.41
2022-09-30T08:02:13.412Z,100495.59
2022-09-30T08:04:52.397Z,100497.38
2022-09-30T08:07:22.914Z,100498.34
2022-09-30T08:09:50.182Z,100494.78
2022-09-30T08:12:17.159Z,100494.84
2022-09-30T08:14:45.059Z,100492.19
2022-09-30T08:17:15.900Z,100501.00
2022-09-30T08:19:45.411Z,100493.88
2022-09-30T08:22:13.945Z,100497.38
2022-09-30T08:24:45.241Z,100504.41
2022-09-30T08:27:14.494Z,100503.47
2022-09-30T08:32:32.176Z,100502.41
2022-09-30T08:35:10.954Z,100515.63
2022-09-30T08:37:37.928Z,100525.31
2022-09-30T08:40:05.210Z,100527.03
2022-09-30T08:42:40.578Z,100523.41
2022-09-30T08:45:25.346Z,100516.22
2022-09-30T08:48:34.633Z,100520.59
2022-09-30T08:51:38.003Z,100516.06
2022-09-30T08:54:16.442Z,100513.34
2022-09-30T08:56:47.952Z,100523.94
2022-09-30T08:59:33.610Z,100522.09
2022-09-30T09:02:17.493Z,100532.66
2022-09-30T09:04:45.579Z,100530.81
2022-09-30T09:07:23.729Z,100527.16
2022-09-30T09:10:12.787Z,100528.84
2022-09-30T09:12:52.159Z,100531.41
2022-09-30T09:15:43.125Z,100519.78
2022-09-30T09:18:43.271Z,100525.03
2022-09-30T09:21:35.347Z,100523.19
2022-09-30T09:24:30.464Z,100525.72
2022-09-30T09:27:23.379Z,100532.69
2022-09-30T09:30:01.832Z,100534.38
2022-09-30T09:32:29.861Z,100536.06
2022-09-30T09:35:04.566Z,100544.84
2022-09-30T09:38:13.921Z,100545.66
2022-09-30T09:40:57.703Z,100540.28
2022-09-30T09:43:48.415Z,100538.44
2022-09-30T09:46:26.685Z,100530.34
2022-09-30T09:49:42.175Z,100533.84
2022-09-30T09:52:12.451Z,100534.66
2022-09-30T09:54:47.319Z,100527.50
2022-09-30T09:57:24.931Z,100534.50
2022-09-30T10:02:30.111Z,100533.50
2022-09-30T10:05:01.293Z,100533.44
2022-09-30T10:07:30.225Z,100534.25
2022-09-30T10:10:23.706Z,100526.16
2022-09-30T10:12:53.973Z,100526.94
2022-09-30T10:15:26.317Z,100528.69
2022-09-30T10:18:06.856Z,100525.94
2022-09-30T10:20:34.954Z,100525.91
2022-09-30T10:23:08.207Z,100516.94
2022-09-30T10:25:35.183Z,100520.41
2022-09-30T10:28:04.313Z,100523.94
2022-09-30T10:30:43.134Z,100522.06
2022-09-30T10:33:16.838Z,100519.34
2022-09-30T10:35:53.948Z,100516.59
2022-09-30T10:38:22.171Z,100521.84
2022-09-30T10:40:51.046Z,100515.63
2022-09-30T10:43:20.957Z,100516.41
2022-09-30T10:46:01.498Z,100512.81
2022-09-30T10:48:36.365Z,100517.16
2022-09-30T10:51:04.520Z,100519.75
2022-09-30T10:53:34.480Z,100516.97
2022-09-30T10:56:05.132Z,100516.94
2022-09-30T10:58:46.624Z,100520.41
2022-09-30T11:04:35.193Z,100521.06
2022-09-30T11:07:27.870Z,100524.50
2022-09-30T11:10:05.055Z,100526.16
2022-09-30T11:13:37.930Z,100522.50
2022-09-30T11:16:42.446Z,100521.47
2022-09-30T11:19:24.274Z,100542.66
2022-09-30T11:22:00.940Z,100537.22
2022-09-30T11:24:44.293Z,100533.50
2022-09-30T11:27:51.096Z,100536.91
2022-09-30T11:30:21.966Z,100532.41
2022-09-30T11:33:24.903Z,100521.63
2022-09-30T11:35:56.887Z,100526.91
2022-09-30T11:38:51.406Z,100526.81
2022-09-30T11:41:23.688Z,100523.13
2022-09-30T11:44:17.858Z,100522.09
2022-09-30T11:47:06.263Z,100521.13
2022-09-30T11:49:36.395Z,100513.84
2022-09-30T11:52:30.621Z,100525.41
2022-09-30T11:55:29.970Z,100527.19
2022-09-30T11:58:39.774Z,100516.53
2022-09-30T12:04:35.650Z,100505.66
2022-09-30T12:07:11.638Z,100518.94
2022-09-30T12:09:46.704Z,100522.47
2022-09-30T12:12:17.978Z,100506.31
2022-09-30T12:14:49.664Z,100514.22
2022-09-30T12:17:39.662Z,100506.06
2022-09-30T12:20:22.808Z,100506.81
2022-09-30T12:22:55.048Z,100508.50
2022-09-30T12:25:39.827Z,100510.16
2022-09-30T12:28:34.557Z,100507.34
2022-09-30T12:31:40.136Z,100507.13
2022-09-30T12:34:29.441Z,100505.16
2022-09-30T12:37:02.749Z,100499.66
2022-09-30T12:39:59.183Z,100498.50
2022-09-30T12:42:50.723Z,100508.19
2022-09-30T12:45:55.036Z,100513.66
2022-09-30T12:48:26.514Z,100505.63
2022-09-30T12:50:57.556Z,100502.84
2022-09-30T12:53:36.186Z,100495.66
2022-09-30T12:56:14.603Z,100498.25
2022-09-30T12:58:55.668Z,100503.63
2022-09-30T13:01:42.458Z,100500.91
2022-09-30T13:04:39.101Z,100495.56
2022-09-30T13:07:22.506Z,100503.47
2022-09-30T13:10:01.375Z,100495.44
2022-09-30T13:12:44.780Z,100497.19
2022-09-30T13:15:42.013Z,100491.78
2022-09-30T13:18:20.538Z,100486.28
2022-09-30T13:20:56.780Z,100487.97
2022-09-30T13:23:42.827Z,100484.25
2022-09-30T13:26:36.484Z,100484.16
2022-09-30T13:29:06.383Z,100478.72
2022-09-30T13:31:56.249Z,100481.31
2022-09-30T13:34:30.925Z,100484.81
2022-09-30T13:36:59.159Z,100485.59
2022-09-30T13:39:30.592Z,100470.38
2022-09-30T13:42:00.273Z,100480.94
2022-09-30T13:44:38.634Z,100476.34
2022-09-30T13:47:45.549Z,100477.06
2022-09-30T13:50:31.603Z,100477.94
2022-09-30T13:53:40.545Z,100485.00
2022-09-30T13:56:09.557Z,100476.03
2022-09-30T13:58:50.636Z,100470.56
2022-09-30T14:01:32.412Z,100466.09
2022-09-30T14:04:21.626Z,100469.53
2022-09-30T14:07:29.303Z,100470.38
2022-09-30T14:10:20.154Z,100458.78
2022-09-30T14:12:56.702Z,100465.00
2022-09-30T14:16:08.874Z,100475.72
2022-09-30T14:18:44.547Z,100474.97
2022-09-30T14:21:18.136Z,100471.59
2022-09-30T14:23:45.140Z,100474.47
2022-09-30T14:26:43.985Z,100465.75
2022-09-30T14:29:19.912Z,100471.19
2022-09-30T14:31:47.595Z,100467.59
2022-09-30T14:34:17.041Z,100470.09
2022-09-30T14:36:44.546Z,100458.47
2022-09-30T14:39:18.101Z,100462.03
2022-09-30T14:41:51.198Z,100458.63
2022-09-30T14:44:20.065Z,100466.81
2022-09-30T14:46:48.540Z,100459.84
2022-09-30T14:49:28.776Z,100462.63
2022-09-30T14:51:55.727Z,100466.28
2022-09-30T14:54:24.622Z,100470.81
2022-09-30T14:56:54.749Z,100459.31
2022-09-30T14:59:31.263Z,100452.22
2022-09-30T15:02:00.681Z,100454.06
2022-09-30T15:04:35.146Z,100459.44
2022-09-30T15:07:03.507Z,100455.94
2022-09-30T15:09:36.193Z,100455.09
2022-09-30T15:12:10.124Z,100451.53
2022-09-30T15:14:55.311Z,100446.25
2022-09-30T15:17:29.982Z,100444.53
2022-09-30T15:19:58.362Z,100455.28
2022-09-30T15:22:26.842Z,100451.81
2022-09-30T15:24:54.391Z,100449.16
2022-09-30T15:27:24.156Z,100443.00
2022-09-30T15:30:29.299Z,100443.97
2022-09-30T15:33:01.948Z,100449.41
2022-09-30T15:35:28.867Z,100442.41
2022-09-30T15:38:07.096Z,100451.34
2022-09-30T15:40:50.453Z,100444.31
2022-09-30T15:43:35.647Z,100447.94
2022-09-30T15:46:27.653Z,100444.47
2022-09-30T15:48:59.427Z,100440.06
2022-09-30T15:51:43.470Z,100436.53
2022-09-30T15:54:16.206Z,100441.09
2022-09-30T15:56:43.541Z,100437.59
2022-09-30T15:59:11.550Z,100429.63
2022-09-30T16:01:43.840Z,100436.88
2022-09-30T16:04:15.239Z,100440.47
2022-09-30T16:06:45.011Z,100438.81
2022-09-30T16:09:18.990Z,100437.16
2022-09-30T16:12:09.960Z,100441.72
2022-09-30T16:15:00.608Z,100435.59
2022-09-30T16:17:35.619Z,100434.84
2022-09-30T16:20:07.820Z,100433.13
2022-09-30T16:22:53.541Z,100436.81
2022-09-30T16:25:23.514Z,100439.59
2022-09-30T16:27:57.617Z,100448.63
2022-09-30T16:30:25.591Z,100448.72
2022-09-30T16:32:58.112Z,100446.19
2022-09-30T16:35:27.697Z,100441.00
2022-09-30T16:38:00.214Z,100434.88
2022-09-30T16:40:28.690Z,100442.16
2022-09-30T16:42:55.589Z,100444.97
2022-09-30T16:45:22.584Z,100447.78
2022-09-30T16:47:50.492Z,100440.78
2022-09-30T16:50:25.656Z,100439.16
2022-09-30T16:52:52.621Z,100440.22
2022-09-30T16:55:19.495Z,100435.88
2022-09-30T16:57:46.342Z,100438.69
2022-09-30T17:00:15.896Z,100438.81
2022-09-30T17:02:42.721Z,100436.34
2022-09-30T17:05:15.370Z,100434.69
2022-09-30T17:07:43.852Z,100433.97
2022-09-30T17:10:18.322Z,100442.16
2022-09-30T17:12:45.138Z,100433.38
2022-09-30T17:15:12.406Z,100443.31
2022-09-30T17:17:39.314Z,100439.97
2022-09-30T17:20:06.840Z,100438.28
2022-09-30T17:22:33.743Z,100443.75
2022-09-30T17:25:00.720Z,100449.22
2022-09-30T17:27:27.695Z,100444.00
2022-09-30T17:29:55.557Z,100442.41
2022-09-30T17:32:22.645Z,100445.16
2022-09-30T17:34:53.988Z,100439.97
2022-09-30T17:37:27.169Z,100447.19
2022-09-30T17:39:54.244Z,100447.28
2022-09-30T17:42:39.979Z,100452.78
2022-09-30T17:45:12.807Z,100447.56
2022-09-30T17:47:42.398Z,100452.13
2022-09-30T17:50:14.776Z,100452.19
2022-09-30T17:52:44.087Z,100460.28
2022-09-30T17:55:11.094Z,100453.28
2022-09-30T17:57:39.939Z,100461.38
2022-09-30T18:00:07.554Z,100461.41
2022-09-30T18:02:34.448Z,100453.50
2022-09-30T18:05:01.353Z,100452.72
2022-09-30T18:07:28.157Z,100450.13
2022-09-30T18:09:54.969Z,100454.66
2022-09-30T18:12:21.741Z,100450.28
2022-09-30T18:14:48.538Z,100453.06
2022-09-30T18:17:15.325Z,100454.88
2022-09-30T18:19:42.129Z,100462.06
2022-09-30T18:22:08.898Z,100459.47
2022-09-30T18:24:54.549Z,100461.34
2022-09-30T18:27:22.677Z,100466.75
2022-09-30T18:29:49.716Z,100463.31
2022-09-30T18:32:17.586Z,100459.84
2022-09-30T18:34:44.421Z,100468.78
2022-09-30T18:37:11.211Z,100463.50
2022-09-30T18:39:38.178Z,100453.81
2022-09-30T18:42:05.450Z,100452.06
2022-09-30T18:44:37.594Z,100446.75
2022-09-30T18:47:05.055Z,100454.81
2022-09-30T18:49:32.401Z,100447.78
2022-09-30T18:51:59.728Z,100447.81
2022-09-30T18:54:26.503Z,100446.09
2022-09-30T18:56:53.436Z,100443.47
2022-09-30T18:59:23.262Z,100449.72
2022-09-30T19:01:51.018Z,100447.09
2022-09-30T19:04:17.858Z,100440.03
2022-09-30T19:06:45.207Z,100437.41
2022-09-30T19:09:12.008Z,100441.00
2022-09-30T19:11:43.093Z,100436.59
2022-09-30T19:14:12.283Z,100436.59
2022-09-30T19:16:39.343Z,100427.81
2022-09-30T19:19:10.257Z,100427.84
2022-09-30T19:21:38.240Z,100429.66
2022-09-30T19:24:06.735Z,100438.56
2022-09-30T19:26:36.192Z,100436.81
2022-09-30T19:29:09.502Z,100437.72
2022-09-30T19:31:37.505Z,100441.34
2022-09-30T19:34:05.271Z,100436.00
2022-09-30T19:36:42.003Z,100428.91
2022-09-30T19:39:12.483Z,100432.47
2022-09-30T19:41:39.865Z,100431.59
2022-09-30T19:44:06.999Z,100424.53
2022-09-30T19:46:33.784Z,100435.19
2022-09-30T19:49:00.535Z,100431.59
2022-09-30T19:51:30.762Z,100428.09
2022-09-30T19:54:06.119Z,100421.91
2022-09-30T19:56:34.820Z,100434.31
2022-09-30T19:59:01.814Z,100424.63
2022-09-30T20:01:29.536Z,100428.19
2022-09-30T20:03:59.370Z,100432.63
2022-09-30T20:06:28.013Z,100431.78
2022-09-30T20:08:59.988Z,100434.47
2022-09-30T20:11:28.771Z,100430.06
2022-09-30T20:14:15.614Z,100422.13
2022-09-30T20:16:43.852Z,100426.63
2022-09-30T20:19:11.837Z,100422.19
2022-09-30T20:21:38.745Z,100428.41
2022-09-30T20:24:05.669Z,100419.56
2022-09-30T20:26:34.232Z,100419.63
2022-09-30T20:29:01.309Z,100426.72
2022-09-30T20:31:28.364Z,100422.28
2022-09-30T20:33:55.960Z,100422.34
2022-09-30T20:36:23.586Z,100422.41
2022-09-30T20:38:51.353Z,100417.09
2022-09-30T20:41:18.323Z,100419.78
2022-09-30T20:43:49.253Z,100418.94
2022-09-30T20:46:16.075Z,100417.19
2022-09-30T20:48:42.843Z,100419.88
2022-09-30T20:51:11.962Z,100419.91
2022-09-30T20:53:45.592Z,100417.31
2022-09-30T20:56:15.569Z,100421.75
2022-09-30T20:58:42.735Z,100417.31
2022-09-30T21:01:12.580Z,100418.28
2022-09-30T21:03:40.349Z,100411.19
2022-09-30T21:06:11.072Z,100410.31
2022-09-30T21:08:39.207Z,100416.56
2022-09-30T21:11:07.359Z,100406.81
2022-09-30T21:13:35.298Z,100406.88
2022-09-30T21:16:03.995Z,100398.91
2022-09-30T21:18:31.423Z,100397.13
2022-09-30T21:20:59.793Z,100404.25
2022-09-30T21:23:30.528Z,100394.53
2022-09-30T21:25:58.810Z,100397.19
2022-09-30T21:28:26.006Z,100393.66
2022-09-30T21:30:53.114Z,100395.44
2022-09-30T21:33:20.583Z,100387.47
2022-09-30T21:35:47.432Z,100386.59
2022-09-30T21:38:17.585Z,100387.47
2022-09-30T21:40:50.136Z,100380.41
2022-09-30T21:43:34.955Z,100376.88
2022-09-30T21:46:03.926Z,100373.31
2022-09-30T21:48:33.163Z,100372.44
2022-09-30T21:51:00.359Z,100368.06
2022-09-30T21:53:27.910Z,100365.41
2022-09-30T21:55:55.744Z,100367.19
2022-09-30T21:58:25.232Z,100359.22
2022-09-30T22:00:53.417Z,100366.31
2022-09-30T22:03:21.236Z,100357.50
2022-09-30T22:05:54.618Z,100353.06
2022-09-30T22:08:22.179Z,100354.91
2022-09-30T22:10:50.770Z,100345.16
2022-09-30T22:13:18.019Z,100347.81
2022-09-30T22:15:46.061Z,100333.66
2022-09-30T22:18:17.434Z,100338.97
2022-09-30T22:20:45.092Z,100330.13
2022-09-30T22:23:12.031Z,100323.97
2022-09-30T22:25:39.036Z,100326.63
2022-09-30T22:28:05.896Z,100328.41
2022-09-30T22:30:33.159Z,100328.41
2022-09-30T22:33:18.530Z,100332.84
2022-09-30T22:36:03.772Z,100323.16
2022-09-30T22:38:31.159Z,100315.19
2022-09-30T22:40:59.280Z,100321.38
2022-09-30T22:43:26.876Z,100319.63
2022-09-30T22:46:08.289Z,100316.06
2022-09-30T22:48:35.254Z,100308.97
2022-09-30T22:51:01.997Z,100306.34
2022-09-30T22:53:28.898Z,100304.56
2022-09-30T22:55:55.879Z,100302.78
2022-09-30T22:58:24.431Z,100305.44
2022-09-30T23:00:55.115Z,100300.13
2022-09-30T23:03:22.671Z,100298.34
2022-09-30T23:05:50.105Z,100300.13
2022-09-30T23:08:17.273Z,100299.22
2022-09-30T23:10:50.686Z,100301.00
2022-09-30T23:13:19.923Z,100297.44
2022-09-30T23:15:47.809Z,100298.31
2022-09-30T23:18:17.062Z,100293.00
2022-09-30T23:20:59.970Z,100298.31
2022-09-30T23:23:29.749Z,100302.72
2022-09-30T23:26:00.195Z,100300.94
2022-09-30T23:28:26.987Z,100302.69
2022-09-30T23:30:53.864Z,100300.03
2022-09-30T23:33:20.784Z,100298.22
2022-09-30T23:35:48.184Z,100299.09
2022-09-30T23:38:15.494Z,100294.66
2022-09-30T23:40:44.701Z,100284.03
2022-09-30T23:43:11.536Z,100290.19
2022-09-30T23:45:38.301Z,100289.28
2022-09-30T23:48:05.066Z,100283.97
2022-09-30T23:50:32.362Z,100286.63
2022-09-30T23:52:59.593Z,100273.34
2022-09-30T23:55:27.696Z,100279.56
2022-09-30T23:57:54.434Z,100272.47
